Time;durP1;ratioP1;P1;durP2;ratioP2;P2;SDS_P1;SDS_P2;PMS_P1;PMS_P2;Temp;Humidity;BMP_temperature;BMP_pressure;BME280_temperature;BME280_humidity;BME280_pressure;Samples;Min_cycle;Max_cycle;Signal;HPM_P1;HPM_P2
2022/07/15 00:00:31;;;;;;;5.20;2.20;;;21.80;60.60;;;;;;5024911;28;20028;-83
2022/07/15 00:02:58;;;;;;;6.03;3.05;;;21.80;60.90;;;;;;5017099;28;20097;-83
2022/07/15 00:05:24;;;;;;;5.72;2.80;;;21.80;60.90;;;;;;5000971;28;20090;-82
2022/07/15 00:07:50;;;;;;;3.92;2.53;;;21.80;61.00;;;;;;5022870;28;20037;-83
2022/07/15 00:10:20;;;;;;;4.10;2.88;;;21.90;60.90;;;;;;5019736;28;20050;-82
2022/07/15 00:12:55;;;;;;;2.80;2.50;;;21.80;61.00;;;;;;5001558;28;20019;-83
2022/07/15 00:15:25;;;;;;;3.38;2.42;;;21.80;61.10;;;;;;4979633;28;20026;-80
2022/07/15 00:17:52;;;;;;;3.13;2.35;;;21.80;61.20;;;;;;4980288;28;20034;-81
2022/07/15 00:20:19;;;;;;;2.58;2.33;;;21.70;61.30;;;;;;4995510;28;20030;-81
2022/07/15 00:22:46;;;;;;;3.83;2.42;;;21.70;61.60;;;;;;4996198;28;20034;-81
2022/07/15 00:25:13;;;;;;;4.55;2.67;;;21.70;61.70;;;;;;4978787;28;20042;-82
2022/07/15 00:27:57;;;;;;;3.67;2.38;;;21.60;61.70;;;;;;4996054;28;20022;-82
2022/07/15 00:30:27;;;;;;;4.57;2.67;;;21.60;61.80;;;;;;5001491;28;20019;-82
2022/07/15 00:32:53;;;;;;;4.25;2.55;;;21.60;62.00;;;;;;5007528;28;20149;-81
2022/07/15 00:35:19;;;;;;;3.80;2.65;;;21.60;62.20;;;;;;4998381;28;20029;-82
2022/07/15 00:37:44;;;;;;;3.35;2.78;;;21.50;63.00;;;;;;4980615;28;20117;-83
2022/07/15 00:40:12;;;;;;;2.85;2.55;;;21.50;63.10;;;;;;4997002;28;20182;-83
2022/07/15 00:42:44;;;;;;;3.90;3.05;;;;;;;;;;5002191;28;20091;-83
2022/07/15 00:45:14;;;;;;;3.47;2.85;;;21.40;63.90;;;;;;5015970;28;20018;-82
2022/07/15 00:47:42;;;;;;;4.50;3.00;;;21.20;65.90;;;;;;5016656;28;20065;-83
2022/07/15 00:50:08;;;;;;;4.10;2.40;;;21.00;66.40;;;;;;5016405;28;20152;-82
2022/07/15 00:52:37;;;;;;;4.40;2.85;;;20.90;67.80;;;;;;5027457;28;20014;-82
2022/07/15 00:55:06;;;;;;;4.10;3.08;;;20.80;68.50;;;;;;5012702;28;20022;-82
2022/07/15 00:57:39;;;;;;;8.20;3.00;;;20.80;67.10;;;;;;5007078;28;20038;-83
2022/07/15 01:00:07;;;;;;;3.85;2.50;;;20.70;67.50;;;;;;5030839;28;20033;-82
2022/07/15 01:02:34;;;;;;;34.05;5.70;;;20.80;66.50;;;;;;5031688;28;20029;-82
2022/07/15 01:05:03;;;;;;;6.68;3.67;;;20.40;79.80;;;;;;5010629;28;20084;-82
2022/07/15 01:07:29;;;;;;;5.70;3.50;;;18.90;91.40;;;;;;4992225;28;20022;-82
2022/07/15 01:09:55;;;;;;;6.35;4.10;;;17.70;96.10;;;;;;4987259;28;20088;-80
2022/07/15 01:12:21;;;;;;;6.07;4.45;;;17.10;99.90;;;;;;5000661;28;20394;-82
2022/07/15 01:14:48;;;;;;;6.55;4.07;;;16.90;99.90;;;;;;4978952;28;20018;-81
2022/07/15 01:17:15;;;;;;;5.53;4.25;;;16.90;99.90;;;;;;4978468;28;20046;-81
2022/07/15 01:19:41;;;;;;;6.38;4.50;;;17.10;99.90;;;;;;5010306;23;20077;-80
2022/07/15 01:22:07;;;;;;;10.93;4.47;;;17.30;99.90;;;;;;4986870;28;20026;-84
2022/07/15 01:24:33;;;;;;;4.47;3.58;;;17.40;99.90;;;;;;5000375;28;20513;-83
2022/07/15 01:27:00;;;;;;;4.68;3.72;;;17.50;99.90;;;;;;4983030;28;20493;-83
2022/07/15 01:29:26;;;;;;;3.85;3.55;;;17.60;99.90;;;;;;4988097;28;20061;-82
2022/07/15 01:31:52;;;;;;;4.40;4.00;;;17.80;99.90;;;;;;4979006;28;20035;-81
2022/07/15 01:34:18;;;;;;;4.60;4.18;;;17.90;99.90;;;;;;4962480;28;20030;-81
2022/07/15 01:36:43;;;;;;;4.45;4.05;;;18.00;99.90;;;;;;4980338;28;20363;-83
2022/07/15 01:39:09;;;;;;;4.45;4.05;;;18.10;99.90;;;;;;4983213;28;20023;-83
2022/07/15 01:41:34;;;;;;;4.53;3.88;;;18.20;99.90;;;;;;4985172;28;20428;-82
2022/07/15 01:44:00;;;;;;;4.45;3.55;;;18.30;99.90;;;;;;4969253;28;20042;-84
2022/07/15 01:46:26;;;;;;;4.07;3.55;;;18.30;99.90;;;;;;4966360;28;20030;-84
2022/07/15 01:51:36;;;;;;;6.28;3.63;;;18.30;99.90;;;;;;4976883;28;20077;-83
2022/07/15 01:54:02;;;;;;;6.35;3.65;;;18.30;99.90;;;;;;4985838;28;20015;-84
2022/07/15 01:56:28;;;;;;;3.95;3.65;;;18.30;99.90;;;;;;4985924;28;20058;-80
2022/07/15 01:58:53;;;;;;;6.57;3.33;;;18.30;99.90;;;;;;4991239;28;20026;-84
2022/07/15 02:01:19;;;;;;;4.35;3.75;;;18.30;99.90;;;;;;4991053;28;20035;-83
2022/07/15 02:03:45;;;;;;;6.35;3.92;;;18.30;99.90;;;;;;4971488;28;20112;-82
2022/07/15 02:06:10;;;;;;;6.25;3.53;;;18.30;99.90;;;;;;4975185;29;20031;-81
2022/07/15 02:08:36;;;;;;;4.57;3.38;;;18.40;97.80;;;;;;4975735;29;20027;-81
2022/07/15 02:11:02;;;;;;;7.68;3.10;;;18.40;96.70;;;;;;4975982;29;20043;-82
2022/07/15 02:13:28;;;;;;;4.85;3.50;;;18.40;97.40;;;;;;4992664;28;20046;-81
2022/07/15 02:15:54;;;;;;;7.70;3.75;;;18.40;96.10;;;;;;4979739;28;20022;-80
2022/07/15 02:18:20;;;;;;;6.50;3.00;;;18.50;94.50;;;;;;4998325;28;20026;-81
2022/07/15 02:20:46;;;;;;;5.32;3.22;;;18.50;94.10;;;;;;4985703;28;20031;-81
2022/07/15 02:23:12;;;;;;;4.28;3.45;;;18.60;94.10;;;;;;4975002;29;20187;-82
2022/07/15 02:25:38;;;;;;;4.00;3.55;;;18.60;93.90;;;;;;4976113;28;20083;-82
2022/07/15 02:28:05;;;;;;;5.60;3.30;;;18.60;93.60;;;;;;4977463;28;20035;-83
2022/07/15 02:30:34;;;;;;;4.28;3.33;;;18.60;93.50;;;;;;4995035;28;20087;-82
2022/07/15 02:33:01;;;;;;;6.68;3.47;;;18.60;93.60;;;;;;5005054;28;20026;-81
2022/07/15 02:35:28;;;;;;;5.72;3.78;;;18.60;93.60;;;;;;4990869;28;20034;-84
2022/07/15 02:37:54;;;;;;;7.05;3.88;;;18.50;93.80;;;;;;4984587;28;20113;-84
2022/07/15 02:40:20;;;;;;;7.65;3.80;;;18.50;93.70;;;;;;4984257;28;20030;-81
2022/07/15 02:42:52;;;;;;;6.70;3.47;;;18.50;93.60;;;;;;4960766;29;20023;-84
2022/07/15 02:45:19;;;;;;;4.80;2.70;;;18.50;93.60;;;;;;4962676;29;20027;-82
2022/07/15 02:47:46;;;;;;;6.55;3.10;;;18.50;92.10;;;;;;4967360;29;20378;-84
2022/07/15 02:50:12;;;;;;;5.30;2.58;;;18.40;90.80;;;;;;4967514;28;20044;-82
2022/07/15 02:52:38;;;;;;;4.40;2.35;;;18.40;90.30;;;;;;4980768;28;20035;-81
2022/07/15 02:55:04;;;;;;;4.13;2.35;;;18.30;88.60;;;;;;4982601;28;20034;-84
2022/07/15 02:57:30;;;;;;;7.32;3.00;;;18.30;88.40;;;;;;4964377;28;20066;-84
2022/07/15 02:59:56;;;;;;;3.90;2.30;;;18.10;87.70;;;;;;4982163;28;20022;-83
2022/07/15 03:02:22;;;;;;;8.82;2.10;;;18.10;86.90;;;;;;4995272;28;20384;-84
2022/07/15 03:04:47;;;;;;;4.38;2.22;;;18.00;87.30;;;;;;4982171;28;20054;-84
2022/07/15 03:07:13;;;;;;;7.35;2.53;;;17.90;87.20;;;;;;4980541;28;20031;-83
2022/07/15 03:09:39;;;;;;;8.68;2.50;;;17.90;87.10;;;;;;4982183;28;20055;-81
2022/07/15 03:12:05;;;;;;;2.90;2.05;;;17.90;87.00;;;;;;4977438;28;20035;-84
2022/07/15 03:14:31;;;;;;;4.90;2.20;;;17.90;87.30;;;;;;4981507;28;20054;-83
2022/07/15 03:16:56;;;;;;;6.78;2.15;;;17.80;87.40;;;;;;4982155;28;20027;-83
2022/07/15 03:19:22;;;;;;;4.80;2.35;;;17.80;87.50;;;;;;4964164;28;20023;-84
2022/07/15 03:21:48;;;;;;;6.47;2.63;;;17.80;87.30;;;;;;4982325;28;20034;-84
2022/07/15 03:24:15;;;;;;;9.43;2.20;;;17.80;87.10;;;;;;4962808;29;20087;-84
2022/07/15 03:26:41;;;;;;;5.60;2.10;;;17.80;87.50;;;;;;4962211;28;20097;-82
2022/07/15 03:29:07;;;;;;;6.95;2.30;;;17.80;87.20;;;;;;4964639;28;20016;-83
2022/07/15 03:31:33;;;;;;;8.07;2.58;;;17.80;87.80;;;;;;4971199;28;20039;-83
2022/07/15 03:33:59;;;;;;;4.68;2.42;;;17.80;87.70;;;;;;4994003;28;20088;-84
2022/07/15 03:36:24;;;;;;;5.57;2.35;;;17.70;88.20;;;;;;5001945;28;20033;-84
2022/07/15 03:38:51;;;;;;;3.28;2.40;;;17.70;88.60;;;;;;5002212;28;20080;-84
2022/07/15 03:41:20;;;;;;;5.55;2.30;;;17.70;88.10;;;;;;5003503;28;20118;-83
2022/07/15 03:43:45;;;;;;;4.95;2.10;;;17.60;87.80;;;;;;4980598;28;20027;-84
2022/07/15 03:46:13;;;;;;;3.85;1.85;;;17.60;88.10;;;;;;4961842;28;20498;-84
2022/07/15 03:48:39;;;;;;;3.72;2.10;;;17.60;88.50;;;;;;4961982;29;20066;-82
2022/07/15 03:51:05;;;;;;;2.92;1.73;;;17.60;89.00;;;;;;4962574;29;20027;-84
2022/07/15 03:53:31;;;;;;;3.20;1.70;;;17.60;89.40;;;;;;4969795;28;20085;-82
2022/07/15 03:55:57;;;;;;;6.05;2.28;;;17.60;89.70;;;;;;4980133;28;20034;-85
2022/07/15 03:58:22;;;;;;;3.28;1.80;;;17.60;89.10;;;;;;4980212;28;20121;-84
2022/07/15 04:00:48;;;;;;;6.30;2.72;;;17.60;86.50;;;;;;4967059;28;20066;-83
2022/07/15 04:03:14;;;;;;;5.93;1.80;;;17.70;87.30;;;;;;4988162;28;20019;-83
2022/07/15 04:05:39;;;;;;;4.35;2.10;;;17.70;87.30;;;;;;4959560;29;20031;-83
2022/07/15 04:08:05;;;;;;;3.53;2.00;;;17.80;87.70;;;;;;4961768;29;20109;-84
2022/07/15 04:10:31;;;;;;;5.43;1.67;;;17.80;86.40;;;;;;4962051;28;20030;-83
2022/07/15 04:12:57;;;;;;;7.25;2.55;;;17.80;86.80;;;;;;4957718;28;20035;-83
2022/07/15 04:15:23;;;;;;;3.15;1.98;;;17.80;86.70;;;;;;4980673;28;20039;-84
2022/07/15 04:17:49;;;;;;;4.55;2.10;;;17.80;86.90;;;;;;4995489;28;20022;-80
2022/07/15 04:20:14;;;;;;;6.03;1.98;;;17.80;87.10;;;;;;4984780;28;20097;-83
2022/07/15 04:22:42;;;;;;;3.90;1.70;;;17.80;86.20;;;;;;4972701;28;20032;-82
2022/07/15 04:25:09;;;;;;;7.13;2.08;;;17.80;86.10;;;;;;4960380;28;20042;-84
2022/07/15 04:27:35;;;;;;;5.78;2.40;;;17.80;86.30;;;;;;4960576;29;20023;-83
2022/07/15 04:30:00;;;;;;;6.68;2.38;;;17.80;85.60;;;;;;4965608;28;20042;-84
2022/07/15 04:32:26;;;;;;;3.65;1.80;;;17.80;85.70;;;;;;4976657;28;20023;-82
2022/07/15 04:34:52;;;;;;;7.45;2.45;;;17.80;85.70;;;;;;4999648;28;20049;-82
2022/07/15 04:37:18;;;;;;;7.70;1.98;;;17.80;85.30;;;;;;4966342;28;20105;-82
2022/07/15 04:39:44;;;;;;;7.32;2.60;;;17.80;84.20;;;;;;4972793;28;20027;-83
2022/07/15 04:42:12;;;;;;;3.53;1.80;;;17.90;84.20;;;;;;4961222;29;20429;-84
2022/07/15 04:44:38;;;;;;;5.38;1.77;;;17.80;83.60;;;;;;4960125;28;20034;-82
2022/07/15 04:47:03;;;;;;;5.10;2.20;;;17.80;84.00;;;;;;4984161;28;20030;-82
2022/07/15 04:52:14;;;;;;;6.65;2.30;;;17.90;84.80;;;;;;4967790;28;20062;-83
2022/07/15 04:54:40;;;;;;;4.28;2.20;;;17.90;83.70;;;;;;4980042;28;20484;-83
2022/07/15 04:57:06;;;;;;;4.93;2.13;;;17.90;83.90;;;;;;4980342;28;20037;-83
2022/07/15 04:59:32;;;;;;;2.92;2.13;;;18.00;84.20;;;;;;4978594;28;20023;-81
2022/07/15 05:01:58;;;;;;;4.18;2.22;;;18.10;84.00;;;;;;4967762;28;20360;-85
2022/07/15 05:04:24;;;;;;;7.70;2.08;;;18.10;83.90;;;;;;4996256;28;20517;-83
2022/07/15 05:06:50;;;;;;;4.82;2.25;;;18.20;82.90;;;;;;5000368;28;20050;-83
2022/07/15 05:09:16;;;;;;;5.18;2.15;;;18.30;82.80;;;;;;4977992;28;20027;-82
2022/07/15 05:11:41;;;;;;;6.10;1.80;;;18.40;82.60;;;;;;4981501;28;20030;-82
2022/07/15 05:14:07;;;;;;;4.70;2.10;;;18.50;81.80;;;;;;4965040;28;20480;-81
2022/07/15 05:16:32;;;;;;;5.10;1.83;;;18.80;81.90;;;;;;4977814;28;20395;-85
2022/07/15 05:18:58;;;;;;;3.65;1.83;;;20.80;77.90;;;;;;4995419;28;20015;-83
2022/07/15 05:21:24;;;;;;;4.78;1.58;;;22.30;70.50;;;;;;4980693;28;20448;-84
2022/07/15 05:23:49;;;;;;;4.13;1.67;;;23.50;66.90;;;;;;4983796;28;20030;-83
2022/07/15 05:26:15;;;;;;;4.60;1.77;;;23.20;63.30;;;;;;4984494;28;20030;-81
2022/07/15 05:28:41;;;;;;;3.05;1.60;;;22.40;64.70;;;;;;4983167;28;20057;-85
2022/07/15 05:31:07;;;;;;;4.43;1.85;;;22.80;64.40;;;;;;4965922;28;20386;-84
2022/07/15 05:33:33;;;;;;;4.65;2.20;;;23.00;64.00;;;;;;4988851;28;20134;-84
2022/07/15 05:35:58;;;;;;;4.78;1.80;;;24.30;61.10;;;;;;4966385;28;20069;-83
2022/07/15 05:38:24;;;;;;;3.65;1.52;;;24.30;58.80;;;;;;4984309;28;20038;-84
2022/07/15 05:40:51;;;;;;;5.50;1.60;;;23.60;59.70;;;;;;4965879;28;20034;-82
2022/07/15 05:43:16;;;;;;;5.20;1.88;;;24.00;60.10;;;;;;4985964;28;20035;-84
2022/07/15 05:45:42;;;;;;;4.53;1.98;;;25.10;57.60;;;;;;4986528;28;20058;-84
2022/07/15 05:48:09;;;;;;;5.20;1.63;;;26.20;55.90;;;;;;4986671;28;20019;-83
2022/07/15 05:50:43;;;;;;;2.92;1.60;;;27.00;53.70;;;;;;4986594;28;20042;-84
2022/07/15 05:53:09;;;;;;;3.80;1.98;;;27.10;52.00;;;;;;4982640;28;20034;-85
2022/07/15 05:55:35;;;;;;;8.80;2.08;;;26.10;52.30;;;;;;4969938;28;20376;-85
2022/07/15 05:58:04;;;;;;;1.85;1.40;;;25.10;54.30;;;;;;4951781;29;20066;-85
2022/07/15 06:00:29;;;;;;;4.65;2.10;;;25.60;54.80;;;;;;4977300;28;20539;-86
2022/07/15 06:02:55;;;;;;;3.38;1.73;;;26.10;53.50;;;;;;4991493;28;20023;-86
2022/07/15 06:05:21;;;;;;;5.53;2.17;;;27.00;51.80;;;;;;4992248;28;20034;-85
2022/07/15 06:07:46;;;;;;;6.03;3.05;;;27.30;50.00;;;;;;4981570;28;20030;-83
2022/07/15 06:10:12;;;;;;;2.55;2.03;;;27.10;50.50;;;;;;4965532;29;20117;-85
2022/07/15 06:12:38;;;;;;;4.25;2.40;;;26.90;51.30;;;;;;4949074;29;20055;-82
2022/07/15 06:15:04;;;;;;;6.55;2.15;;;26.80;51.70;;;;;;4952529;29;20027;-84
2022/07/15 06:17:30;;;;;;;6.90;2.72;;;26.20;50.80;;;;;;4979312;28;20034;-83
2022/07/15 06:19:56;;;;;;;6.57;2.67;;;25.20;50.30;;;;;;4958809;28;20075;-86
2022/07/15 06:22:21;;;;;;;5.57;2.17;;;24.80;52.10;;;;;;4986389;28;20023;-84
2022/07/15 06:24:47;;;;;;;3.60;1.65;;;24.70;51.70;;;;;;4985536;28;20466;-85
2022/07/15 06:27:13;;;;;;;2.13;1.38;;;25.00;51.70;;;;;;4966877;28;20030;-81
2022/07/15 06:29:38;;;;;;;3.58;2.40;;;25.70;51.70;;;;;;4985511;28;20039;-85
2022/07/15 06:32:04;;;;;;;6.50;1.70;;;26.90;50.00;;;;;;4994623;28;20029;-83
2022/07/15 06:34:30;;;;;;;4.72;1.83;;;26.60;48.50;;;;;;5003555;28;20034;-85
2022/07/15 06:36:56;;;;;;;2.88;1.45;;;26.00;48.90;;;;;;5004903;28;20048;-85
2022/07/15 06:39:21;;;;;;;1.40;1.30;;;26.40;48.50;;;;;;4990199;28;20119;-84
2022/07/15 06:41:48;;;;;;;5.75;1.48;;;26.60;48.10;;;;;;4952310;28;20034;-84
2022/07/15 06:44:13;;;;;;;3.65;1.83;;;27.20;47.40;;;;;;4975208;28;20023;-82
2022/07/15 06:46:39;;;;;;;2.00;1.50;;;28.90;44.30;;;;;;4984543;28;20030;-85
2022/07/15 06:49:05;;;;;;;5.90;2.22;;;29.60;43.60;;;;;;4957650;28;20019;-84
2022/07/15 06:51:30;;;;;;;4.63;1.50;;;30.00;42.50;;;;;;4986012;28;20027;-81
2022/07/15 06:53:56;;;;;;;3.65;1.38;;;30.50;43.30;;;;;;4969256;28;20029;-83
2022/07/15 06:56:22;;;;;;;2.55;1.58;;;31.50;41.70;;;;;;4987874;28;20488;-84
2022/07/15 06:58:47;;;;;;;3.47;1.40;;;31.50;40.90;;;;;;4969546;28;20047;-84
2022/07/15 07:01:13;;;;;;;3.05;1.70;;;30.80;40.70;;;;;;4992889;28;20025;-84
2022/07/15 07:03:38;;;;;;;3.50;1.80;;;29.30;42.20;;;;;;4985466;28;20057;-82
2022/07/15 07:06:05;;;;;;;6.55;1.73;;;28.50;42.80;;;;;;4981290;28;20027;-84
2022/07/15 07:08:31;;;;;;;2.67;1.48;;;27.90;43.80;;;;;;4950370;28;20389;-83
2022/07/15 07:11:02;;;;;;;2.63;1.67;;;27.90;44.00;;;;;;4984433;28;20094;-84
2022/07/15 07:13:28;;;;;;;4.25;1.45;;;27.60;43.40;;;;;;4987126;28;20049;-84
2022/07/15 07:15:53;;;;;;;6.05;2.38;;;27.80;44.20;;;;;;4985193;28;20395;-84
2022/07/15 07:18:19;;;;;;;4.18;1.40;;;28.50;43.70;;;;;;4966551;28;20034;-84
2022/07/15 07:20:45;;;;;;;4.38;1.33;;;28.10;42.60;;;;;;4981694;23;20078;-84
2022/07/15 07:23:10;;;;;;;5.05;1.63;;;26.30;44.50;;;;;;4982560;28;20125;-84
2022/07/15 07:25:37;;;;;;;2.95;1.40;;;24.70;47.10;;;;;;4984902;28;20101;-84
2022/07/15 07:28:03;;;;;;;3.45;1.55;;;23.50;50.80;;;;;;4967070;28;20065;-83
2022/07/15 07:30:32;;;;;;;3.28;1.23;;;22.80;51.40;;;;;;4983026;28;20035;-85
2022/07/15 07:32:58;;;;;;;5.50;1.20;;;22.30;52.40;;;;;;4963740;29;20420;-85
2022/07/15 07:35:24;;;;;;;6.43;1.58;;;21.90;53.20;;;;;;4965203;29;20023;-84
2022/07/15 07:38:05;;;;;;;5.40;1.40;;;21.70;53.20;;;;;;4966837;28;20036;-84
2022/07/15 07:40:31;;;;;;;4.03;1.23;;;21.50;54.00;;;;;;4967866;28;20104;-84
2022/07/15 07:42:57;;;;;;;3.67;1.10;;;21.40;53.10;;;;;;4970190;29;20039;-83
2022/07/15 07:45:23;;;;;;;3.90;1.08;;;21.30;53.30;;;;;;4973015;29;20039;-85
2022/07/15 07:47:49;;;;;;;4.55;1.20;;;21.30;52.20;;;;;;4948124;29;20035;-83
2022/07/15 07:50:15;;;;;;;4.00;1.77;;;21.20;53.10;;;;;;4971891;28;20035;-83
2022/07/15 07:52:42;;;;;;;5.35;1.20;;;21.20;53.90;;;;;;4977467;28;20118;-82
2022/07/15 07:55:08;;;;;;;9.70;1.95;;;21.10;54.90;;;;;;4967607;28;20038;-85
2022/07/15 07:57:35;;;;;;;3.33;1.40;;;21.00;55.70;;;;;;4966088;29;20102;-86
2022/07/15 08:00:02;;;;;;;5.13;1.35;;;21.00;54.70;;;;;;4966338;29;20037;-86
2022/07/15 08:02:28;;;;;;;6.55;1.48;;;20.90;54.90;;;;;;4964829;28;20031;-85
2022/07/15 08:04:53;;;;;;;4.22;1.50;;;21.00;55.40;;;;;;4949784;29;20043;-84
2022/07/15 08:07:19;;;;;;;4.03;1.80;;;21.00;56.10;;;;;;4966007;29;20035;-82
2022/07/15 08:09:45;;;;;;;7.50;1.40;;;21.00;55.70;;;;;;4948477;29;20380;-85
2022/07/15 08:12:10;;;;;;;2.92;1.30;;;21.20;56.30;;;;;;4965282;28;20028;-85
2022/07/15 08:14:36;;;;;;;4.22;1.52;;;21.30;56.40;;;;;;4965970;28;20038;-86
2022/07/15 08:17:02;;;;;;;8.43;1.77;;;21.40;55.90;;;;;;4964812;29;20027;-85
2022/07/15 08:19:28;;;;;;;5.82;1.90;;;21.50;56.30;;;;;;4948181;29;20090;-85
2022/07/15 08:21:53;;;;;;;5.90;1.80;;;21.60;55.40;;;;;;4965894;28;20023;-85
2022/07/15 08:24:19;;;;;;;4.57;2.38;;;21.50;55.70;;;;;;4948607;29;20058;-85
2022/07/15 08:26:45;;;;;;;3.67;1.40;;;21.50;55.20;;;;;;4949539;29;20484;-87
2022/07/15 08:29:11;;;;;;;6.65;2.17;;;21.60;55.80;;;;;;4965504;29;20479;-83
2022/07/15 08:31:37;;;;;;;9.23;1.50;;;21.60;55.50;;;;;;4965302;28;20130;-86
2022/07/15 08:34:04;;;;;;;5.65;1.67;;;21.80;55.20;;;;;;4963104;29;20027;-85
2022/07/15 08:36:30;;;;;;;6.45;2.42;;;21.80;54.80;;;;;;4965842;28;20055;-86
2022/07/15 08:38:56;;;;;;;9.07;2.85;;;21.70;55.80;;;;;;4951744;28;20042;-86
2022/07/15 08:41:22;;;;;;;7.05;1.70;;;21.80;55.20;;;;;;4969691;28;20027;-84
2022/07/15 08:43:48;;;;;;;3.78;1.65;;;21.90;54.90;;;;;;4968215;29;20042;-83
2022/07/15 08:46:16;;;;;;;4.45;1.45;;;21.90;55.50;;;;;;4972197;28;20103;-83
2022/07/15 08:48:49;;;;;;;6.57;2.20;;;22.00;55.00;;;;;;4968634;28;20026;-85
2022/07/15 08:51:18;;;;;;;3.58;1.50;;;22.10;55.10;;;;;;4963599;28;20086;-84
2022/07/15 08:53:44;;;;;;;4.45;2.05;;;22.30;55.20;;;;;;4964387;29;20039;-82
2022/07/15 08:56:10;;;;;;;4.93;1.90;;;22.40;54.50;;;;;;4968103;29;20023;-84
2022/07/15 08:58:36;;;;;;;2.97;1.48;;;22.20;54.40;;;;;;4957977;29;20032;-83
2022/07/15 09:01:03;;;;;;;4.15;1.83;;;22.30;54.20;;;;;;4951742;28;20020;-84
2022/07/15 09:03:28;;;;;;;3.65;1.50;;;22.40;54.50;;;;;;4965160;28;20225;-84
2022/07/15 09:05:54;;;;;;;6.97;2.78;;;22.60;54.50;;;;;;4971253;29;20027;-80
2022/07/15 09:08:20;;;;;;;4.80;2.17;;;22.80;53.90;;;;;;4987548;28;20174;-81
2022/07/15 09:10:57;;;;;;;3.38;1.50;;;22.90;53.80;;;;;;4954238;29;20051;-81
2022/07/15 09:13:40;;;;;;;2.83;1.88;;;23.00;53.70;;;;;;4969344;29;20031;-82
2022/07/15 09:16:13;;;;;;;5.55;2.00;;;23.00;53.30;;;;;;4969532;29;20029;-81
2022/07/15 09:18:43;;;;;;;14.65;2.35;;;23.00;53.30;;;;;;4953231;29;20030;-84
2022/07/15 09:21:20;;;;;;;2.67;1.65;;;23.10;53.30;;;;;;4973594;28;20011;-81
2022/07/15 09:23:47;;;;;;;5.30;1.60;;;23.40;53.20;;;;;;4976224;28;20015;-81
2022/07/15 09:26:35;;;;;;;4.43;1.80;;;23.70;52.70;;;;;;4960397;28;20126;-79
2022/07/15 09:33:33;;;;;;;2.70;1.60;;;24.00;51.80;;;;;;4960333;28;20026;-79
2022/07/15 09:35:00;;;;;;;7.53;2.70;;;24.20;51.60;;;;;;4976567;28;20033;-79
2022/07/15 09:37:26;;;;;;;5.10;2.95;;;24.30;50.30;;;;;;4975739;28;20031;-82
2022/07/15 09:39:56;;;;;;;4.45;2.22;;;24.30;50.90;;;;;;4975962;28;20075;-82
2022/07/15 09:42:22;;;;;;;6.07;1.98;;;24.20;49.80;;;;;;4964957;28;20039;-83
2022/07/15 09:44:48;;;;;;;4.63;2.30;;;23.80;50.20;;;;;;4959520;29;20023;-83
2022/07/15 09:47:19;;;;;;;3.80;1.92;;;23.50;51.50;;;;;;4945171;29;20149;-83
2022/07/15 09:49:45;;;;;;;2.80;2.03;;;23.50;51.80;;;;;;4961222;29;20027;-84
2022/07/15 09:52:14;;;;;;;1.75;1.42;;;23.80;51.80;;;;;;4960671;28;20031;-84
2022/07/15 09:54:47;;;;;;;3.80;1.60;;;24.10;51.10;;;;;;4961933;29;20055;-83
2022/07/15 09:57:17;;;;;;;6.78;2.10;;;24.50;50.50;;;;;;4961227;28;20030;-84
2022/07/15 09:59:48;;;;;;;5.83;2.40;;;24.70;49.60;;;;;;4959725;28;20024;-84
2022/07/15 10:02:15;;;;;;;5.50;1.80;;;24.80;49.10;;;;;;4976604;28;20417;-84
2022/07/15 10:04:41;;;;;;;6.88;2.22;;;24.80;48.60;;;;;;4965744;29;20023;-83
2022/07/15 10:07:07;;;;;;;4.22;2.13;;;24.60;49.10;;;;;;4963846;29;20028;-81
2022/07/15 10:09:35;;;;;;;4.30;2.15;;;24.40;49.10;;;;;;4961152;28;20091;-83
2022/07/15 10:12:16;;;;;;;5.15;1.70;;;24.40;48.90;;;;;;4968425;28;20035;-80
2022/07/15 10:15:00;;;;;;;5.57;2.38;;;24.40;49.60;;;;;;4969409;28;20027;-81
2022/07/15 10:17:46;;;;;;;4.80;2.30;;;24.70;49.00;;;;;;4977285;28;20042;-77
2022/07/15 10:20:33;;;;;;;4.68;1.83;;;24.90;48.00;;;;;;4961289;28;20050;-80
2022/07/15 10:23:21;;;;;;;4.28;1.90;;;25.00;47.90;;;;;;4978193;28;20043;-83
2022/07/15 10:26:04;;;;;;;5.85;2.67;;;25.20;47.80;;;;;;4965510;28;20055;-82
2022/07/15 10:28:56;;;;;;;4.78;1.90;;;25.50;46.60;;;;;;4964556;29;20027;-84
2022/07/15 10:31:38;;;;;;;2.87;1.63;;;25.70;46.40;;;;;;4969197;28;20053;-84
2022/07/15 10:34:03;;;;;;;3.55;1.65;;;26.00;46.00;;;;;;4959449;29;20271;-85
2022/07/15 10:36:49;;;;;;;2.83;1.88;;;26.10;45.50;;;;;;4964845;29;20035;-83
2022/07/15 10:39:20;;;;;;;6.57;2.40;;;26.20;45.00;;;;;;4968099;29;20096;-84
2022/07/15 10:42:03;;;;;;;5.43;2.47;;;26.40;45.00;;;;;;4973854;28;20019;-79
2022/07/15 10:44:31;;;;;;;4.78;2.20;;;26.70;45.10;;;;;;4960391;29;20062;-81
2022/07/15 10:47:12;;;;;;;4.22;2.20;;;26.80;44.40;;;;;;4967813;29;20031;-82
2022/07/15 10:49:43;;;;;;;2.70;2.17;;;27.00;43.80;;;;;;4968414;28;20031;-83
2022/07/15 10:52:35;;;;;;;4.57;2.28;;;27.00;43.90;;;;;;4968052;28;20065;-84
2022/07/15 10:55:35;;;;;;;7.88;2.85;;;27.00;43.90;;;;;;4963080;29;20362;-83
2022/07/15 10:58:24;;;;;;;4.97;2.38;;;26.90;43.10;;;;;;4965815;29;20027;-84
2022/07/15 11:01:10;;;;;;;3.47;2.05;;;26.60;43.70;;;;;;4963576;28;20027;-84
2022/07/15 11:04:14;;;;;;;4.95;2.00;;;26.00;43.80;;;;;;4965205;28;20092;-83
2022/07/15 11:07:01;;;;;;;4.72;2.40;;;25.50;44.80;;;;;;4964952;29;20039;-83
2022/07/15 11:09:50;;;;;;;3.42;1.92;;;25.20;45.80;;;;;;4964452;28;20034;-84
2022/07/15 11:12:43;;;;;;;4.13;2.13;;;25.20;45.80;;;;;;4947999;29;20032;-85
2022/07/15 11:15:23;;;;;;;3.85;2.03;;;25.10;46.80;;;;;;4946199;29;20050;-82
2022/07/15 11:17:53;;;;;;;4.95;2.50;;;25.30;45.90;;;;;;4956706;28;20083;-82
2022/07/15 11:20:34;;;;;;;8.05;2.20;;;25.70;44.50;;;;;;4962421;28;20079;-82
2022/07/15 11:23:01;;;;;;;4.35;1.77;;;25.90;44.40;;;;;;4946627;29;20065;-82
2022/07/15 11:25:33;;;;;;;4.35;2.10;;;26.10;44.30;;;;;;4961991;28;20031;-83
2022/07/15 11:28:00;;;;;;;;;;;26.40;44.10;;;;;;4945275;29;20027;-82
2022/07/15 11:30:28;;;;;;;3.92;2.00;;;26.90;43.40;;;;;;4962557;28;20210;-82
2022/07/15 11:32:59;;;;;;;3.35;1.70;;;27.30;43.00;;;;;;4952954;28;20476;-83
2022/07/15 11:35:27;;;;;;;5.25;1.70;;;27.50;41.70;;;;;;4961862;28;20027;-83
2022/07/15 11:38:01;;;;;;;4.28;2.47;;;27.20;42.00;;;;;;4960668;29;20019;-83
2022/07/15 11:45:59;;;;;;;3.72;2.00;;;27.60;42.30;;;;;;4946016;29;20057;-85
2022/07/15 11:48:25;;;;;;;4.03;1.90;;;28.00;41.60;;;;;;4961562;29;20027;-83
2022/07/15 11:50:54;;;;;;;3.58;2.05;;;28.10;41.40;;;;;;4962282;28;20365;-84
2022/07/15 11:53:20;;;;;;;4.40;2.20;;;28.20;41.00;;;;;;4971238;28;20084;-85
2022/07/15 11:55:59;;;;;;;3.63;2.08;;;28.20;40.70;;;;;;4955278;28;20024;-83
2022/07/15 11:58:49;;;;;;;2.80;2.30;;;28.10;41.30;;;;;;4965766;29;20015;-83
2022/07/15 12:01:19;;;;;;;3.00;2.08;;;28.20;40.60;;;;;;4963873;28;20216;-84
2022/07/15 12:03:50;;;;;;;3.42;2.15;;;28.20;40.30;;;;;;4964564;29;20027;-84
2022/07/15 12:06:19;;;;;;;4.50;2.05;;;28.00;40.30;;;;;;4948165;29;20027;-82
2022/07/15 12:08:54;;;;;;;4.38;2.22;;;27.50;40.40;;;;;;4963832;29;20042;-84
2022/07/15 12:11:36;;;;;;;5.28;2.42;;;27.20;40.70;;;;;;4964091;28;20043;-83
2022/07/15 12:14:13;;;;;;;3.53;2.30;;;27.10;41.10;;;;;;4964781;29;20369;-88
2022/07/15 12:16:39;;;;;;;5.90;2.28;;;27.20;41.50;;;;;;4956904;29;20074;-83
2022/07/15 12:19:20;;;;;;;2.95;2.08;;;27.50;41.40;;;;;;4972852;29;20023;-84
2022/07/15 12:21:48;;;;;;;4.32;2.50;;;27.80;41.20;;;;;;4973122;28;20090;-86
2022/07/15 12:24:20;;;;;;;5.85;2.00;;;27.80;40.80;;;;;;4970942;28;20062;-85
2022/07/15 12:26:54;;;;;;;3.88;2.40;;;27.70;41.20;;;;;;4972263;29;20114;-83
2022/07/15 12:29:25;;;;;;;7.90;2.28;;;27.80;41.30;;;;;;4966309;29;20067;-84
2022/07/15 12:31:57;;;;;;;4.05;1.98;;;27.90;40.70;;;;;;4948010;29;20099;-84
2022/07/15 12:34:43;;;;;;;4.18;2.30;;;27.70;40.90;;;;;;4973305;28;20023;-83
2022/07/15 12:37:09;;;;;;;5.50;2.50;;;27.50;41.10;;;;;;4963530;28;20033;-84
2022/07/15 12:40:05;;;;;;;3.28;2.10;;;27.50;41.20;;;;;;4981230;28;20050;-83
2022/07/15 12:42:31;;;;;;;2.95;2.10;;;27.70;41.50;;;;;;4971511;28;20035;-83
2022/07/15 12:45:17;;;;;;;4.57;2.30;;;28.00;41.10;;;;;;4967685;28;20046;-84
2022/07/15 12:48:16;;;;;;;8.32;2.50;;;28.10;40.40;;;;;;4971514;29;20038;-84
2022/07/15 12:50:48;;;;;;;3.25;2.47;;;27.50;41.10;;;;;;4973245;28;20091;-85
2022/07/15 12:53:15;;;;;;;4.03;1.75;;;27.50;41.50;;;;;;4973689;29;20011;-85
2022/07/15 12:55:43;;;;;;;5.20;2.40;;;27.70;41.00;;;;;;4972293;28;20024;-84
2022/07/15 12:58:11;;;;;;;5.50;2.55;;;27.80;40.80;;;;;;4973885;28;20019;-87
2022/07/15 13:00:39;;;;;;;3.88;2.40;;;28.20;41.10;;;;;;4975920;28;20054;-88
2022/07/15 13:03:08;;;;;;;2.47;1.85;;;28.50;40.90;;;;;;4975110;29;20027;-85
2022/07/15 13:05:42;;;;;;;4.15;1.83;;;28.80;40.30;;;;;;4975449;28;20108;-87
2022/07/15 13:08:11;;;;;;;4.50;2.00;;;28.70;39.40;;;;;;4976955;29;20043;-87
2022/07/15 13:10:39;;;;;;;5.60;2.45;;;28.60;40.00;;;;;;4960169;28;20019;-89